Time;durP1;ratioP1;P1;durP2;ratioP2;P2;SDS_P1;SDS_P2;PMS_P1;PMS_P2;Temp;Humidity;BMP_temperature;BMP_pressure;BME280_temperature;BME280_humidity;BME280_pressure;Samples;Min_cycle;Max_cycle;Signal;HPM_P1;HPM_P2
2021/08/30 00:00:43;;;;;;;0.80;0.80;;;23.10;61.80;;;;;;5051422;28;20079;-52
2021/08/30 00:03:08;;;;;;;0.80;0.80;;;23.10;61.80;;;;;;5051602;28;20060;-49
2021/08/30 00:05:34;;;;;;;1.13;0.93;;;23.10;61.80;;;;;;5050206;28;20040;-50
2021/08/30 00:07:59;;;;;;;1.33;0.60;;;23.10;61.80;;;;;;5050893;28;20065;-49
2021/08/30 00:10:26;;;;;;;0.82;0.80;;;23.10;61.80;;;;;;5051229;28;20057;-49
2021/08/30 00:12:52;;;;;;;0.93;0.70;;;23.00;61.80;;;;;;5050777;28;20445;-50
2021/08/30 00:15:19;;;;;;;0.90;0.80;;;23.00;61.80;;;;;;5051195;28;20037;-50
2021/08/30 00:17:49;;;;;;;1.17;1.08;;;23.10;61.80;;;;;;5050189;28;20497;-50
2021/08/30 00:20:18;;;;;;;1.00;0.65;;;23.10;61.80;;;;;;5051443;28;20021;-49
2021/08/30 00:22:44;;;;;;;1.00;0.90;;;23.00;61.70;;;;;;5050910;28;20036;-53
2021/08/30 00:25:10;;;;;;;0.77;0.70;;;23.10;61.80;;;;;;5051197;28;20029;-49
2021/08/30 00:27:36;;;;;;;1.23;1.08;;;23.00;61.70;;;;;;5051166;28;20108;-50
2021/08/30 00:30:03;;;;;;;0.77;0.70;;;23.10;61.80;;;;;;5050379;28;20025;-51
2021/08/30 00:32:28;;;;;;;1.17;0.80;;;23.00;61.70;;;;;;5051299;28;20036;-48
2021/08/30 00:34:54;;;;;;;0.75;0.75;;;23.00;61.70;;;;;;5050523;28;20028;-51
2021/08/30 00:37:20;;;;;;;1.15;1.05;;;23.00;61.60;;;;;;5050981;28;20029;-50
2021/08/30 00:39:47;;;;;;;0.65;0.65;;;23.00;61.60;;;;;;5050486;28;20025;-49
2021/08/30 00:42:13;;;;;;;1.20;0.90;;;23.10;61.70;;;;;;5050643;28;20037;-52
2021/08/30 00:44:39;;;;;;;0.70;0.70;;;23.10;61.70;;;;;;5050819;28;20517;-51
2021/08/30 00:47:05;;;;;;;1.33;0.93;;;23.00;61.70;;;;;;5050656;28;20077;-51
2021/08/30 00:49:30;;;;;;;0.77;0.77;;;23.00;61.60;;;;;;5050888;28;20025;-49
2021/08/30 00:51:57;;;;;;;0.80;0.70;;;23.00;61.60;;;;;;5050278;28;20029;-49
2021/08/30 00:54:25;;;;;;;0.85;0.80;;;23.00;61.60;;;;;;5053034;28;20037;-51
2021/08/30 00:56:51;;;;;;;0.98;0.80;;;23.00;61.60;;;;;;5053918;28;20135;-49
2021/08/30 00:59:16;;;;;;;1.00;0.90;;;23.00;61.60;;;;;;5054797;28;20032;-49
2021/08/30 01:01:42;;;;;;;0.98;0.75;;;23.00;61.60;;;;;;5054481;28;20080;-53
2021/08/30 01:04:09;;;;;;;1.02;0.93;;;23.00;61.60;;;;;;5054494;28;20025;-52
2021/08/30 01:06:50;;;;;;;1.30;0.90;;;23.00;61.50;;;;;;5054494;28;20037;-50
2021/08/30 01:09:28;;;;;;;0.85;0.80;;;23.00;61.60;;;;;;5053433;28;20075;-50
2021/08/30 01:12:13;;;;;;;1.05;0.90;;;23.00;61.60;;;;;;5053475;28;20508;-49
2021/08/30 01:14:51;;;;;;;0.90;0.90;;;23.00;61.60;;;;;;5053682;28;20021;-50
2021/08/30 01:17:19;;;;;;;1.08;0.98;;;23.00;61.50;;;;;;5054925;28;20512;-50
2021/08/30 01:20:02;;;;;;;1.15;1.05;;;23.00;61.50;;;;;;5053851;28;20025;-53
2021/08/30 01:22:29;;;;;;;0.80;0.75;;;23.00;61.50;;;;;;5054499;28;20466;-49
2021/08/30 01:24:56;;;;;;;1.40;1.05;;;23.00;61.50;;;;;;5053626;28;20039;-49
2021/08/30 01:27:24;;;;;;;1.00;0.90;;;23.00;61.50;;;;;;5054319;28;20037;-48
2021/08/30 01:30:00;;;;;;;1.30;0.90;;;23.00;61.50;;;;;;5053694;28;20021;-51
2021/08/30 01:32:30;;;;;;;1.20;1.10;;;23.00;61.50;;;;;;5054206;28;20386;-50
2021/08/30 01:35:02;;;;;;;1.02;0.90;;;23.00;61.40;;;;;;5053807;28;20035;-49
2021/08/30 01:37:34;;;;;;;1.08;0.98;;;23.00;61.50;;;;;;5054440;28;20100;-49
2021/08/30 01:40:01;;;;;;;1.10;1.00;;;23.00;61.50;;;;;;5053451;28;20028;-49
2021/08/30 01:42:29;;;;;;;0.98;0.93;;;23.00;61.50;;;;;;5053853;28;20082;-51
2021/08/30 01:44:56;;;;;;;0.98;0.90;;;23.00;61.40;;;;;;5053196;28;20037;-50
2021/08/30 01:47:22;;;;;;;1.60;0.85;;;23.00;61.40;;;;;;5054139;28;20163;-50
2021/08/30 01:49:59;;;;;;;0.90;0.90;;;23.00;61.40;;;;;;5053370;28;20391;-49
2021/08/30 01:52:26;;;;;;;1.02;0.93;;;23.00;61.30;;;;;;5054016;28;20029;-49
2021/08/30 01:54:53;;;;;;;1.33;0.98;;;23.00;61.40;;;;;;5053011;28;20036;-49
2021/08/30 01:57:21;;;;;;;1.17;1.08;;;23.00;61.40;;;;;;5054003;28;20036;-48
2021/08/30 02:02:34;;;;;;;1.30;1.08;;;22.90;61.40;;;;;;5054027;28;20044;-49
2021/08/30 02:05:00;;;;;;;1.58;0.90;;;23.00;61.40;;;;;;5052398;28;20029;-50
2021/08/30 02:07:26;;;;;;;1.02;0.93;;;22.90;61.30;;;;;;5053495;28;20130;-50
2021/08/30 02:09:52;;;;;;;0.90;0.90;;;22.90;61.30;;;;;;5052845;28;20351;-50
2021/08/30 02:12:18;;;;;;;1.02;0.98;;;22.90;61.20;;;;;;5053296;28;20089;-49
2021/08/30 02:14:44;;;;;;;1.55;1.08;;;23.00;61.30;;;;;;5052330;28;20466;-54
2021/08/30 02:17:14;;;;;;;1.00;0.90;;;23.00;61.30;;;;;;5052871;28;20033;-50
2021/08/30 02:20:07;;;;;;;1.00;0.90;;;23.00;61.90;;;;;;5053515;28;20017;-52
2021/08/30 02:22:41;;;;;;;1.10;1.00;;;22.90;61.20;;;;;;5050584;28;20094;-50
2021/08/30 02:25:12;;;;;;;1.17;1.08;;;22.90;61.30;;;;;;5052898;28;20569;-50
2021/08/30 02:27:54;;;;;;;1.13;1.00;;;23.00;61.30;;;;;;5053428;28;20033;-49
2021/08/30 02:30:21;;;;;;;0.80;0.80;;;22.90;61.20;;;;;;5053145;28;20037;-51
2021/08/30 02:32:51;;;;;;;2.20;1.00;;;23.00;61.30;;;;;;5052802;28;20112;-54
2021/08/30 02:35:21;;;;;;;1.10;1.00;;;22.90;61.20;;;;;;5053187;28;20028;-51
2021/08/30 02:37:50;;;;;;;1.20;1.10;;;22.90;61.20;;;;;;5052594;28;20057;-54
2021/08/30 02:40:18;;;;;;;1.13;0.98;;;22.90;61.20;;;;;;5053100;28;20086;-50
2021/08/30 02:42:46;;;;;;;1.10;1.00;;;23.00;61.30;;;;;;5052980;28;20111;-49
2021/08/30 02:45:12;;;;;;;1.00;0.98;;;22.90;61.20;;;;;;5052137;28;20064;-49
2021/08/30 02:47:39;;;;;;;1.55;1.17;;;22.90;61.20;;;;;;5052897;28;20033;-51
2021/08/30 02:50:06;;;;;;;1.27;1.17;;;23.00;61.30;;;;;;5052195;28;20903;-50
2021/08/30 02:52:33;;;;;;;1.33;1.00;;;22.90;61.20;;;;;;5052862;28;20040;-49
2021/08/30 02:54:59;;;;;;;2.85;1.67;;;22.90;61.20;;;;;;5051256;28;20815;-49
2021/08/30 02:57:25;;;;;;;0.90;0.90;;;22.90;61.20;;;;;;5052016;28;20021;-50
2021/08/30 02:59:52;;;;;;;1.45;1.20;;;22.90;61.20;;;;;;5051614;28;20045;-52
2021/08/30 03:02:21;;;;;;;1.48;0.90;;;22.90;61.20;;;;;;5052921;28;20029;-51
2021/08/30 03:04:47;;;;;;;1.08;0.98;;;22.90;61.20;;;;;;5052337;28;20027;-53
2021/08/30 03:07:13;;;;;;;1.95;0.88;;;22.90;61.20;;;;;;5051972;28;20025;-53
2021/08/30 03:09:39;;;;;;;1.00;0.90;;;22.90;61.20;;;;;;5051302;28;20049;-52
2021/08/30 03:12:07;;;;;;;1.08;0.95;;;22.90;61.20;;;;;;5051771;28;20937;-50
2021/08/30 03:14:36;;;;;;;1.20;0.90;;;22.90;61.20;;;;;;5052048;28;20378;-50
2021/08/30 03:17:06;;;;;;;1.00;0.90;;;22.90;61.20;;;;;;5050692;28;20032;-50
2021/08/30 03:19:32;;;;;;;1.20;1.10;;;22.90;61.20;;;;;;5052261;28;20079;-53
2021/08/30 03:22:01;;;;;;;1.02;0.93;;;22.90;61.20;;;;;;5052022;28;20036;-51
2021/08/30 03:24:28;;;;;;;1.35;1.20;;;22.90;61.20;;;;;;5052339;28;20052;-49
2021/08/30 03:26:55;;;;;;;1.10;1.00;;;22.90;61.20;;;;;;5051079;28;20397;-49
2021/08/30 03:29:22;;;;;;;0.98;0.88;;;22.90;61.20;;;;;;5051992;28;20117;-49
2021/08/30 03:31:49;;;;;;;1.20;0.95;;;22.90;61.20;;;;;;5051583;28;20040;-53
2021/08/30 03:34:17;;;;;;;0.70;0.70;;;22.90;61.20;;;;;;5051900;28;20044;-49
2021/08/30 03:36:44;;;;;;;1.00;0.90;;;22.90;61.20;;;;;;5052139;28;20095;-50
2021/08/30 03:39:10;;;;;;;0.75;0.75;;;22.90;61.10;;;;;;5051043;28;20182;-51
2021/08/30 03:41:37;;;;;;;0.82;0.82;;;22.90;61.10;;;;;;5051939;28;20530;-50
2021/08/30 03:44:03;;;;;;;1.13;1.02;;;22.90;61.10;;;;;;5051207;28;20090;-52
2021/08/30 03:46:30;;;;;;;0.70;0.68;;;22.90;61.10;;;;;;5051761;28;20478;-50
2021/08/30 03:48:56;;;;;;;0.70;0.70;;;22.90;61.10;;;;;;5050868;28;20104;-51
2021/08/30 03:51:23;;;;;;;0.88;0.70;;;22.90;61.10;;;;;;5051812;28;20060;-50
2021/08/30 03:53:51;;;;;;;1.23;1.10;;;22.90;61.10;;;;;;5051222;28;20025;-53
2021/08/30 03:56:17;;;;;;;0.80;0.80;;;22.90;61.10;;;;;;5051369;28;20056;-49
2021/08/30 03:58:44;;;;;;;0.80;0.80;;;22.80;61.10;;;;;;5051740;28;20474;-49
2021/08/30 04:01:11;;;;;;;0.98;0.93;;;22.80;61.10;;;;;;5049917;28;20049;-49
2021/08/30 04:03:43;;;;;;;1.98;1.10;;;22.90;61.10;;;;;;5050194;28;20422;-51
2021/08/30 04:06:10;;;;;;;1.15;0.88;;;22.90;61.10;;;;;;5048761;28;20292;-49
2021/08/30 04:08:36;;;;;;;1.20;1.00;;;22.90;61.20;;;;;;5050395;28;20032;-50
2021/08/30 04:11:04;;;;;;;0.85;0.85;;;22.90;61.10;;;;;;5049684;28;20531;-49
2021/08/30 04:13:31;;;;;;;1.00;0.95;;;22.90;61.10;;;;;;5050588;28;20028;-50
2021/08/30 04:15:57;;;;;;;2.65;1.10;;;22.90;61.10;;;;;;5049058;28;20048;-53
2021/08/30 04:18:22;;;;;;;2.20;1.60;;;22.90;61.20;;;;;;5050556;28;20025;-49
2021/08/30 04:20:48;;;;;;;1.58;1.23;;;22.90;61.20;;;;;;5050093;28;20033;-54
2021/08/30 04:23:14;;;;;;;1.42;1.20;;;22.90;61.20;;;;;;5049871;28;20070;-51
2021/08/30 04:25:40;;;;;;;1.27;1.08;;;22.90;61.20;;;;;;5050100;28;20033;-50
2021/08/30 04:28:05;;;;;;;1.40;1.30;;;22.90;61.20;;;;;;5050339;28;20390;-50
2021/08/30 04:30:31;;;;;;;1.83;1.20;;;22.90;61.20;;;;;;5053987;28;20507;-50
2021/08/30 04:32:57;;;;;;;1.60;1.25;;;22.90;61.20;;;;;;5053237;28;20044;-50
2021/08/30 04:35:23;;;;;;;1.75;1.17;;;22.80;61.20;;;;;;5053749;28;20029;-50
2021/08/30 04:37:49;;;;;;;1.20;1.10;;;22.90;61.20;;;;;;5053962;28;20043;-52
2021/08/30 04:40:15;;;;;;;1.80;1.20;;;22.90;61.20;;;;;;5053792;28;20049;-52
2021/08/30 04:42:41;;;;;;;1.33;1.20;;;22.80;61.10;;;;;;5053914;28;20082;-49
2021/08/30 04:45:07;;;;;;;1.55;1.30;;;22.80;61.20;;;;;;5053039;28;20025;-48
2021/08/30 04:47:34;;;;;;;1.63;1.23;;;22.90;61.20;;;;;;5052012;28;20120;-50
2021/08/30 04:50:00;;;;;;;1.38;1.15;;;22.80;61.10;;;;;;5052866;28;20470;-53
2021/08/30 04:52:26;;;;;;;1.40;1.30;;;22.90;61.20;;;;;;5053793;28;20455;-50
2021/08/30 04:54:52;;;;;;;1.45;1.10;;;22.90;61.20;;;;;;5053049;28;20029;-53
2021/08/30 04:57:18;;;;;;;1.27;1.17;;;22.80;61.10;;;;;;5053654;28;20021;-52
2021/08/30 04:59:43;;;;;;;2.03;1.45;;;22.80;61.20;;;;;;5054250;28;20128;-49
2021/08/30 05:02:09;;;;;;;1.08;0.98;;;22.80;61.20;;;;;;5054132;28;20470;-49
2021/08/30 05:04:35;;;;;;;2.33;1.52;;;22.80;61.20;;;;;;5054848;28;20029;-50
2021/08/30 05:07:02;;;;;;;2.45;1.90;;;22.80;61.20;;;;;;5053794;28;20040;-47
2021/08/30 05:09:28;;;;;;;1.63;1.20;;;22.80;61.20;;;;;;5053800;28;20661;-51
2021/08/30 05:11:54;;;;;;;1.48;1.30;;;22.80;61.30;;;;;;5053510;28;20072;-50
2021/08/30 05:14:20;;;;;;;1.58;1.33;;;22.80;61.30;;;;;;5054708;28;20427;-49
2021/08/30 05:16:45;;;;;;;1.25;1.15;;;22.80;61.20;;;;;;5054827;28;20386;-51
2021/08/30 05:19:11;;;;;;;1.27;1.17;;;22.80;61.20;;;;;;5053538;28;20053;-50
2021/08/30 05:21:37;;;;;;;1.10;1.00;;;22.80;61.20;;;;;;5054621;28;20036;-49
2021/08/30 05:24:03;;;;;;;1.85;1.50;;;22.80;61.20;;;;;;5053925;28;20029;-50
2021/08/30 05:26:29;;;;;;;1.30;1.17;;;22.80;61.20;;;;;;5054015;28;20033;-50
2021/08/30 05:28:54;;;;;;;2.53;1.10;;;22.80;61.20;;;;;;5053724;28;20044;-50
2021/08/30 05:31:20;;;;;;;1.73;1.40;;;22.80;61.30;;;;;;5054283;28;20485;-52
2021/08/30 05:33:46;;;;;;;2.03;1.58;;;22.80;61.20;;;;;;5054324;28;20028;-50
2021/08/30 05:36:11;;;;;;;1.85;1.27;;;22.80;61.30;;;;;;5053330;28;20035;-49
2021/08/30 05:38:37;;;;;;;1.40;1.30;;;22.80;61.30;;;;;;5046633;28;20045;-49
2021/08/30 05:41:03;;;;;;;9.48;3.00;;;22.80;61.50;;;;;;5055109;28;20033;-51
2021/08/30 05:43:28;;;;;;;5.32;1.80;;;22.80;61.50;;;;;;5055211;28;20025;-52
2021/08/30 05:45:54;;;;;;;2.33;1.60;;;22.90;61.70;;;;;;5053360;28;20116;-50
2021/08/30 05:48:20;;;;;;;1.60;1.15;;;22.90;61.60;;;;;;5054005;28;20039;-48
2021/08/30 05:50:45;;;;;;;2.08;1.60;;;23.00;61.90;;;;;;5034283;28;20029;-47
2021/08/30 05:53:11;;;;;;;2.30;1.60;;;23.00;61.80;;;;;;5033501;28;20048;-49
2021/08/30 05:55:37;;;;;;;3.42;2.17;;;23.00;61.70;;;;;;5047847;28;20048;-48
2021/08/30 05:58:02;;;;;;;2.22;1.40;;;23.00;62.10;;;;;;5053900;28;20205;-49
2021/08/30 06:00:28;;;;;;;3.33;1.48;;;23.00;61.70;;;;;;5053978;28;20049;-48
2021/08/30 06:02:54;;;;;;;2.60;1.60;;;23.10;61.70;;;;;;5053403;28;20116;-50
2021/08/30 06:05:19;;;;;;;7.10;1.80;;;23.10;62.20;;;;;;5053695;28;20478;-52
2021/08/30 06:07:45;;;;;;;3.13;1.27;;;23.10;62.20;;;;;;5053418;28;20029;-48
2021/08/30 06:10:11;;;;;;;2.97;1.60;;;23.10;62.20;;;;;;5052575;28;20029;-49
2021/08/30 06:12:38;;;;;;;5.55;2.03;;;23.10;62.00;;;;;;5053538;28;20102;-46
2021/08/30 06:15:05;;;;;;;6.75;2.08;;;23.10;62.70;;;;;;5052462;28;20175;-49
2021/08/30 06:17:30;;;;;;;4.45;2.38;;;23.00;62.70;;;;;;5051634;28;20074;-48
2021/08/30 06:19:56;;;;;;;6.20;2.47;;;23.00;62.70;;;;;;5052397;28;20496;-49
2021/08/30 06:22:22;;;;;;;5.95;2.97;;;23.00;63.00;;;;;;5053047;28;20151;-49
2021/08/30 06:24:48;;;;;;;5.00;2.38;;;23.00;62.70;;;;;;5052429;28;20052;-47
2021/08/30 06:27:17;;;;;;;9.27;3.05;;;23.00;62.40;;;;;;5052474;28;20112;-47
2021/08/30 06:29:42;;;;;;;7.95;3.45;;;22.90;62.20;;;;;;5053102;28;20040;-47
2021/08/30 06:32:08;;;;;;;4.25;2.92;;;22.90;62.10;;;;;;5052428;28;20033;-49
2021/08/30 06:34:34;;;;;;;6.10;2.75;;;22.90;62.30;;;;;;5051646;28;20032;-47
2021/08/30 06:36:59;;;;;;;7.53;2.80;;;22.90;61.70;;;;;;5049555;28;20041;-46
2021/08/30 06:39:25;;;;;;;6.13;2.58;;;22.90;61.90;;;;;;5053161;28;20366;-49
2021/08/30 06:41:51;;;;;;;3.22;2.80;;;22.90;62.20;;;;;;5053334;28;20029;-47
2021/08/30 06:44:17;;;;;;;6.57;3.38;;;22.90;62.10;;;;;;5051838;28;20029;-48
2021/08/30 06:46:42;;;;;;;4.18;2.90;;;23.00;61.60;;;;;;5052303;28;20104;-47
2021/08/30 06:49:08;;;;;;;6.70;2.97;;;23.00;61.50;;;;;;5051951;28;20036;-47
2021/08/30 06:51:33;;;;;;;3.70;2.40;;;23.00;61.70;;;;;;5051718;28;20032;-49
2021/08/30 06:53:59;;;;;;;4.38;2.28;;;23.00;61.80;;;;;;5050724;28;20021;-47
2021/08/30 06:56:25;;;;;;;4.80;2.55;;;23.00;61.80;;;;;;5053102;28;20027;-47
2021/08/30 06:58:50;;;;;;;2.70;2.22;;;23.00;61.70;;;;;;5051076;28;20106;-48
2021/08/30 07:01:17;;;;;;;4.78;2.55;;;23.10;61.70;;;;;;5051860;28;20053;-48
2021/08/30 07:03:42;;;;;;;5.10;2.50;;;23.10;61.60;;;;;;5052981;28;20045;-48
2021/08/30 07:06:08;;;;;;;3.38;2.25;;;23.00;61.70;;;;;;5051147;28;20437;-47
2021/08/30 07:08:34;;;;;;;2.78;2.40;;;23.10;61.60;;;;;;5052938;28;20031;-47
2021/08/30 07:10:59;;;;;;;6.22;2.10;;;23.10;61.70;;;;;;5052032;28;20096;-48
2021/08/30 07:13:25;;;;;;;4.85;2.58;;;23.10;61.70;;;;;;5044650;28;20124;-51
2021/08/30 07:15:50;;;;;;;3.60;2.50;;;23.00;61.60;;;;;;5051970;28;20055;-50
2021/08/30 07:18:16;;;;;;;2.95;2.47;;;23.00;61.70;;;;;;5050996;28;20067;-51
2021/08/30 07:20:42;;;;;;;2.85;2.50;;;23.00;61.80;;;;;;5052676;28;20450;-49
2021/08/30 07:23:08;;;;;;;5.30;2.70;;;23.00;61.90;;;;;;5052164;28;20025;-48
2021/08/30 07:25:34;;;;;;;3.40;2.72;;;23.00;61.80;;;;;;5051933;28;20589;-52
2021/08/30 07:28:00;;;;;;;2.65;2.17;;;23.00;61.80;;;;;;5052317;28;20138;-48
2021/08/30 07:30:26;;;;;;;3.83;2.67;;;23.00;61.80;;;;;;5052394;28;20029;-51
2021/08/30 07:32:52;;;;;;;3.80;2.40;;;23.00;61.90;;;;;;5052118;28;20029;-49
2021/08/30 07:35:18;;;;;;;2.88;2.28;;;23.00;61.80;;;;;;5050336;28;20029;-49
2021/08/30 07:37:44;;;;;;;3.03;2.55;;;23.00;61.90;;;;;;5052062;28;20447;-48
2021/08/30 07:40:10;;;;;;;2.72;2.40;;;23.00;61.90;;;;;;5051085;28;20025;-47
2021/08/30 07:42:36;;;;;;;5.65;2.40;;;23.00;62.00;;;;;;5051973;28;20036;-49
2021/08/30 07:45:02;;;;;;;4.30;2.40;;;23.00;62.00;;;;;;5050808;28;20025;-49
2021/08/30 07:47:28;;;;;;;3.92;2.40;;;23.00;61.90;;;;;;5052246;28;20032;-51
2021/08/30 07:49:54;;;;;;;7.53;2.33;;;23.00;61.90;;;;;;5052026;28;20036;-53
2021/08/30 07:52:21;;;;;;;3.70;2.15;;;23.00;62.10;;;;;;5051058;28;20024;-49
2021/08/30 07:54:47;;;;;;;3.40;2.58;;;23.00;62.00;;;;;;5050826;28;20029;-49
2021/08/30 07:57:14;;;;;;;3.17;2.22;;;23.00;62.00;;;;;;5050726;28;20107;-51
2021/08/30 07:59:39;;;;;;;3.15;2.40;;;23.00;62.10;;;;;;5051389;28;20044;-48
2021/08/30 08:02:05;;;;;;;3.25;2.40;;;23.00;62.10;;;;;;5051039;28;20032;-49
2021/08/30 08:04:30;;;;;;;2.53;2.30;;;23.00;62.10;;;;;;5050460;28;20029;-50
2021/08/30 08:06:56;;;;;;;4.90;2.40;;;23.00;62.20;;;;;;5051135;28;20500;-50
2021/08/30 08:09:22;;;;;;;2.95;2.10;;;23.00;62.20;;;;;;5050340;28;20784;-53
2021/08/30 08:11:47;;;;;;;3.40;2.78;;;23.00;62.10;;;;;;5051751;28;20025;-47
2021/08/30 08:14:13;;;;;;;2.78;2.35;;;23.00;62.10;;;;;;5050655;28;20032;-48
2021/08/30 08:16:39;;;;;;;4.78;2.38;;;23.00;62.10;;;;;;5051832;28;20112;-51
2021/08/30 08:19:06;;;;;;;4.38;2.45;;;23.00;62.30;;;;;;5049539;28;20055;-49
2021/08/30 08:21:34;;;;;;;2.90;2.30;;;23.00;62.30;;;;;;5051356;28;20028;-49
2021/08/30 08:24:00;;;;;;;3.30;2.58;;;23.00;62.20;;;;;;5050653;28;20036;-53
2021/08/30 08:26:26;;;;;;;2.40;2.20;;;23.00;62.30;;;;;;5050954;28;20029;-53
2021/08/30 08:28:54;;;;;;;3.28;2.22;;;23.00;62.30;;;;;;5051617;28;20029;-52
2021/08/30 08:31:20;;;;;;;3.05;2.35;;;23.00;62.30;;;;;;5051225;28;20219;-50
2021/08/30 08:33:45;;;;;;;4.10;2.45;;;23.00;62.40;;;;;;5052097;28;20025;-53
2021/08/30 08:36:11;;;;;;;2.95;2.30;;;23.00;62.40;;;;;;5050661;28;20490;-50
2021/08/30 08:38:37;;;;;;;4.05;2.22;;;23.00;62.30;;;;;;5051642;28;20057;-52
2021/08/30 08:41:02;;;;;;;3.78;2.45;;;23.00;62.40;;;;;;5051584;28;20044;-48
2021/08/30 08:43:29;;;;;;;2.38;2.08;;;23.00;62.40;;;;;;5051366;28;20033;-53
2021/08/30 08:45:55;;;;;;;2.55;2.08;;;23.00;62.40;;;;;;5047422;28;20477;-50
2021/08/30 08:48:22;;;;;;;2.58;2.13;;;23.00;62.50;;;;;;5050625;28;20033;-48
2021/08/30 08:50:48;;;;;;;2.95;2.47;;;23.00;62.50;;;;;;5051506;28;20126;-48
2021/08/30 08:53:14;;;;;;;3.50;2.60;;;23.00;62.50;;;;;;5050942;28;20405;-48
2021/08/30 08:55:40;;;;;;;3.47;2.72;;;23.00;62.60;;;;;;5051132;28;20021;-51
2021/08/30 08:58:15;;;;;;;3.33;2.38;;;23.00;62.70;;;;;;5050874;28;20106;-48
2021/08/30 09:00:43;;;;;;;3.63;2.40;;;23.00;62.70;;;;;;5050814;28;20131;-52
2021/08/30 09:03:17;;;;;;;3.35;2.40;;;23.00;62.70;;;;;;5051067;28;20033;-49
2021/08/30 09:05:43;;;;;;;4.05;2.35;;;23.00;62.90;;;;;;5042235;28;20067;-50
2021/08/30 09:08:29;;;;;;;5.03;2.63;;;23.00;62.80;;;;;;5050501;28;20028;-47
2021/08/30 09:10:55;;;;;;;3.25;2.42;;;23.00;62.80;;;;;;5051543;28;20405;-48
2021/08/30 09:13:26;;;;;;;2.45;2.20;;;23.10;62.90;;;;;;5050975;28;20025;-48
2021/08/30 09:15:52;;;;;;;2.85;2.15;;;23.00;62.90;;;;;;5053901;28;20035;-51
2021/08/30 09:18:18;;;;;;;3.30;1.88;;;23.00;62.70;;;;;;5054424;28;20359;-48
2021/08/30 09:20:44;;;;;;;4.15;2.38;;;23.00;62.90;;;;;;5054730;28;20051;-49
2021/08/30 09:23:15;;;;;;;3.50;2.38;;;23.00;63.00;;;;;;5054367;28;20112;-48
2021/08/30 09:25:45;;;;;;;3.77;2.53;;;23.00;62.80;;;;;;5054434;28;20032;-51
2021/08/30 09:28:10;;;;;;;3.20;2.28;;;23.00;62.80;;;;;;5054155;28;20264;-51
2021/08/30 09:30:36;;;;;;;3.08;2.28;;;23.00;62.80;;;;;;5054961;28;20052;-48
2021/08/30 09:33:02;;;;;;;3.55;2.67;;;23.00;62.90;;;;;;5054910;28;20044;-50
2021/08/30 09:35:28;;;;;;;2.90;2.30;;;23.00;62.80;;;;;;5053629;28;20172;-47
2021/08/30 09:37:54;;;;;;;3.05;2.55;;;23.00;62.90;;;;;;5054769;28;20021;-49
2021/08/30 09:40:24;;;;;;;4.60;2.80;;;22.90;62.90;;;;;;5053921;28;20100;-49
2021/08/30 09:42:56;;;;;;;4.15;2.40;;;23.00;62.90;;;;;;5054781;28;20055;-50
2021/08/30 09:45:27;;;;;;;4.97;3.10;;;22.90;62.90;;;;;;5053855;28;20029;-51
2021/08/30 09:48:01;;;;;;;3.25;2.78;;;23.00;62.90;;;;;;5054690;28;20474;-49
2021/08/30 09:50:31;;;;;;;3.33;2.47;;;23.00;62.90;;;;;;5053575;28;20075;-47
2021/08/30 09:52:58;;;;;;;3.03;2.67;;;22.90;62.90;;;;;;5054461;28;20082;-48
2021/08/30 09:55:25;;;;;;;4.45;3.53;;;22.90;63.00;;;;;;5053258;28;20493;-49
2021/08/30 09:57:52;;;;;;;3.05;2.75;;;22.90;62.90;;;;;;5052477;28;20032;-49
2021/08/30 10:00:19;;;;;;;3.65;2.88;;;23.00;63.00;;;;;;5051389;28;20056;-47
2021/08/30 10:02:52;;;;;;;3.38;2.70;;;22.90;62.90;;;;;;5054210;28;20045;-51
2021/08/30 10:05:17;;;;;;;3.42;2.40;;;22.90;63.10;;;;;;5052884;28;20121;-51
2021/08/30 10:07:47;;;;;;;2.80;2.42;;;22.90;63.00;;;;;;5054078;28;20119;-49
2021/08/30 10:10:14;;;;;;;3.97;2.95;;;23.00;63.00;;;;;;5053091;28;20111;-50
2021/08/30 10:12:41;;;;;;;3.28;2.53;;;22.90;62.90;;;;;;5054214;28;20052;-50
2021/08/30 10:15:08;;;;;;;3.20;2.60;;;22.90;62.90;;;;;;5053912;28;20024;-51
2021/08/30 10:17:35;;;;;;;2.95;2.60;;;22.90;63.50;;;;;;5053362;28;20087;-50
2021/08/30 10:20:03;;;;;;;3.92;3.00;;;22.90;62.90;;;;;;5053673;28;20427;-51
2021/08/30 10:22:29;;;;;;;3.67;2.70;;;23.00;63.60;;;;;;5053290;28;20029;-47
2021/08/30 10:24:55;;;;;;;5.30;3.10;;;22.90;63.10;;;;;;5053213;28;20032;-47
2021/08/30 10:27:32;;;;;;;5.53;3.63;;;22.90;63.10;;;;;;5053018;28;20033;-52
2021/08/30 10:30:09;;;;;;;3.10;2.80;;;22.90;63.10;;;;;;5053359;28;20419;-50
2021/08/30 10:32:40;;;;;;;3.28;2.72;;;22.90;63.10;;;;;;5053866;28;20087;-51
2021/08/30 10:35:18;;;;;;;3.72;2.75;;;22.90;63.20;;;;;;5052749;28;20086;-47
2021/08/30 10:37:52;;;;;;;3.78;3.08;;;22.90;63.20;;;;;;5053497;28;20033;-49
2021/08/30 10:40:20;;;;;;;5.43;3.28;;;22.90;63.20;;;;;;5052481;28;20478;-52
2021/08/30 10:43:04;;;;;;;3.95;2.92;;;22.90;63.20;;;;;;5053578;28;20068;-50
2021/08/30 10:45:41;;;;;;;3.83;3.08;;;22.90;63.20;;;;;;5052429;28;20501;-48
2021/08/30 10:48:10;;;;;;;3.88;2.78;;;23.00;63.30;;;;;;5052635;28;20123;-48
2021/08/30 10:50:45;;;;;;;5.20;3.15;;;22.90;63.20;;;;;;5052032;28;20053;-51
2021/08/30 10:53:17;;;;;;;5.65;3.40;;;22.90;63.30;;;;;;5051952;28;20047;-49
2021/08/30 10:55:46;;;;;;;3.65;2.80;;;22.90;63.30;;;;;;5051563;28;20059;-49
2021/08/30 10:58:26;;;;;;;3.53;3.05;;;22.90;63.30;;;;;;5051355;28;20040;-48
2021/08/30 11:00:55;;;;;;;4.90;3.00;;;22.90;64.00;;;;;;5052260;28;20565;-47
2021/08/30 11:03:33;;;;;;;4.63;3.13;;;22.90;63.40;;;;;;5052244;28;20040;-49
2021/08/30 11:06:17;;;;;;;3.38;2.80;;;22.90;63.40;;;;;;5051508;28;20033;-49
2021/08/30 11:08:44;;;;;;;3.28;2.72;;;22.90;63.50;;;;;;5052234;28;20029;-51
2021/08/30 11:11:12;;;;;;;3.60;2.70;;;22.90;63.40;;;;;;5051955;28;20569;-49
2021/08/30 11:13:39;;;;;;;6.05;3.15;;;22.90;63.50;;;;;;5052621;28;20029;-47
2021/08/30 11:16:21;;;;;;;3.88;2.97;;;23.00;63.50;;;;;;5051243;28;20111;-50
2021/08/30 11:19:03;;;;;;;3.58;2.90;;;22.90;63.50;;;;;;5052680;28;20104;-48
2021/08/30 11:21:40;;;;;;;4.38;2.53;;;22.90;63.40;;;;;;5052267;28;20028;-49
2021/08/30 11:24:08;;;;;;;3.50;2.78;;;22.90;63.30;;;;;;5052287;28;20028;-49
2021/08/30 11:26:35;;;;;;;3.38;2.90;;;22.90;63.30;;;;;;5051683;28;20037;-50
2021/08/30 11:29:06;;;;;;;3.75;3.00;;;23.00;63.10;;;;;;5052503;28;20044;-48
2021/08/30 11:31:39;;;;;;;5.20;3.50;;;23.10;63.40;;;;;;5051964;28;20079;-47
2021/08/30 11:34:06;;;;;;;4.93;2.70;;;23.10;63.50;;;;;;5050959;28;20478;-49
2021/08/30 11:36:46;;;;;;;4.50;3.20;;;23.10;64.10;;;;;;5049157;28;20075;-48
2021/08/30 11:39:14;;;;;;;4.25;3.28;;;23.10;64.10;;;;;;5051348;28;20029;-51
2021/08/30 11:41:41;;;;;;;4.90;3.20;;;23.00;64.40;;;;;;5051868;28;20134;-50
2021/08/30 11:44:07;;;;;;;4.60;2.90;;;23.00;64.40;;;;;;5051874;28;20085;-49
2021/08/30 11:46:46;;;;;;;5.10;3.35;;;23.00;64.40;;;;;;5051131;28;20033;-49
2021/08/30 11:49:13;;;;;;;4.13;3.35;;;23.00;64.70;;;;;;5052243;28;20078;-53
2021/08/30 11:51:41;;;;;;;7.32;3.40;;;23.00;64.70;;;;;;5051437;28;20060;-50
2021/08/30 11:54:15;;;;;;;3.80;3.38;;;23.00;64.90;;;;;;5051464;28;20485;-49
2021/08/30 11:56:42;;;;;;;4.30;3.03;;;22.90;64.60;;;;;;5052182;28;20037;-50
2021/08/30 11:59:08;;;;;;;3.97;3.03;;;23.00;64.60;;;;;;5052257;28;20083;-48
2021/08/30 12:01:38;;;;;;;3.55;2.78;;;22.90;64.50;;;;;;5051278;28;20072;-50
2021/08/30 12:04:15;;;;;;;4.03;3.13;;;22.90;64.60;;;;;;5051686;28;20025;-52
2021/08/30 12:06:47;;;;;;;4.45;3.17;;;22.90;64.50;;;;;;5050319;28;20037;-53
2021/08/30 12:09:13;;;;;;;5.13;3.60;;;22.90;64.60;;;;;;5051849;28;20064;-49
2021/08/30 12:11:51;;;;;;;5.45;3.30;;;23.00;64.70;;;;;;5050195;28;20276;-48
2021/08/30 12:14:20;;;;;;;4.88;3.47;;;22.90;64.60;;;;;;5049872;28;20100;-51
2021/08/30 12:16:48;;;;;;;4.60;3.33;;;22.90;64.60;;;;;;5050259;28;20057;-49
2021/08/30 12:19:14;;;;;;;4.75;3.58;;;22.90;64.70;;;;;;5051756;28;20025;-47
2021/08/30 12:21:41;;;;;;;4.22;3.33;;;22.90;64.60;;;;;;5049594;28;20025;-51
2021/08/30 12:24:08;;;;;;;5.80;3.20;;;22.90;64.60;;;;;;5050662;28;20025;-49
2021/08/30 12:26:38;;;;;;;5.32;3.65;;;22.90;64.70;;;;;;5050474;28;20037;-49
2021/08/30 12:29:04;;;;;;;3.85;3.38;;;22.90;64.60;;;;;;5051047;28;20370;-47
2021/08/30 12:31:32;;;;;;;5.57;3.45;;;22.90;64.60;;;;;;5050928;28;20458;-48
2021/08/30 12:34:14;;;;;;;4.82;3.67;;;22.90;64.60;;;;;;5051085;28;20490;-48
2021/08/30 12:36:42;;;;;;;4.03;3.13;;;22.90;64.60;;;;;;5049465;28;20024;-50
2021/08/30 12:39:08;;;;;;;3.97;3.00;;;22.90;64.70;;;;;;5051319;28;20021;-48
2021/08/30 12:41:34;;;;;;;8.75;4.03;;;22.90;64.60;;;;;;5050509;28;20485;-48
2021/08/30 12:44:00;;;;;;;6.00;3.50;;;22.90;64.50;;;;;;5051212;28;20029;-47
2021/08/30 12:46:26;;;;;;;5.45;3.47;;;22.90;64.70;;;;;;5050433;28;20040;-50
2021/08/30 12:48:52;;;;;;;4.15;3.47;;;22.90;64.50;;;;;;5051203;28;20064;-48
2021/08/30 12:51:18;;;;;;;4.32;3.08;;;23.00;64.40;;;;;;5054814;28;20508;-50
2021/08/30 12:53:44;;;;;;;3.67;2.95;;;23.00;64.40;;;;;;5053879;28;20029;-49